Terminal Aerodrome Forecast
Issued by NWS

Home | Current Version | Previous Version | Text Only | Print | Product List | Glossary On
Versions: 1 2 3 4 5 6 7 8 9 10 11 12 13 14 15 16 17 18 19 20 21 22 23 24 25 26 27 28
000
FTUS42 KMFL 241145
TAFFXE
TAF
KFXE 241145Z 2412/2512 05012G22KT P6SM SHRA BKN035
     FM242000 02015G25KT P6SM VCSH SCT025 BKN035 OVC120
     FM250100 01012G22KT P6SM SCT030 BKN080=

USA.gov is the U.S. government's official web portal to all federal, state and local government web resources and services.